Time;durP1;ratioP1;P1;durP2;ratioP2;P2;SDS_P1;SDS_P2;PMS_P1;PMS_P2;Temp;Humidity;BMP_temperature;BMP_pressure;BME280_temperature;BME280_humidity;BME280_pressure;Samples;Min_cycle;Max_cycle;Signal;HPM_P1;HPM_P2
2022/06/13 00:01:35;;;;;;;;;;;;;;;15.81;70.19;100457.89;84836;1327;24090;-78
2022/06/13 00:03:38;;;;;;;;;;;;;;;15.81;70.49;100462.15;84863;1327;22582;-76
2022/06/13 00:05:42;;;;;;;;;;;;;;;15.81;70.83;100465.30;84850;1321;23867;-75
2022/06/13 00:07:45;;;;;;;;;;;;;;;15.81;71.10;100470.59;84826;1328;25413;-77
2022/06/13 00:09:48;;;;;;;;;;;;;;;15.82;71.08;100482.34;84839;1326;25421;-76
2022/06/13 00:11:51;;;;;;;;;;;;;;;15.83;71.25;100485.45;84865;1326;25433;-76
2022/06/13 00:13:55;;;;;;;;;;;;;;;15.84;71.08;100482.39;84864;1324;22638;-77
2022/06/13 00:15:59;;;;;;;;;;;;;;;15.87;70.61;100476.40;84854;1323;22638;-75
2022/06/13 00:18:02;;;;;;;;;;;;;;;15.90;70.22;100467.55;84862;1325;22599;-77
2022/06/13 00:20:08;;;;;;;;;;;;;;;15.93;70.16;100463.15;84875;1326;22693;-76
2022/06/13 00:22:11;;;;;;;;;;;;;;;15.97;69.93;100472.83;84834;1329;22597;-76
2022/06/13 00:24:14;;;;;;;;;;;;;;;16.00;69.89;100476.98;84834;1326;22569;-77
2022/06/13 00:26:18;;;;;;;;;;;;;;;16.03;69.60;100478.63;84832;1326;22696;-76
2022/06/13 00:28:21;;;;;;;;;;;;;;;16.05;69.53;100483.05;84863;1326;22573;-77
2022/06/13 00:30:25;;;;;;;;;;;;;;;16.07;69.21;100487.38;84861;1324;22563;-76
2022/06/13 00:32:28;;;;;;;;;;;;;;;16.09;69.09;100490.58;84851;1326;22642;-77
2022/06/13 00:34:32;;;;;;;;;;;;;;;16.13;69.04;100494.75;84857;1327;23073;-76
2022/06/13 00:36:35;;;;;;;;;;;;;;;16.16;69.30;100495.07;84863;1325;22578;-77
2022/06/13 00:38:38;;;;;;;;;;;;;;;16.22;69.66;100503.37;84855;1326;25323;-77
2022/06/13 00:40:42;;;;;;;;;;;;;;;16.29;69.90;100514.05;84890;1324;24369;-77
2022/06/13 00:42:46;;;;;;;;;;;;;;;16.35;70.28;100519.11;84878;1326;22634;-76
2022/06/13 00:45:12;;;;;;;;;;;;;;;16.43;70.80;100534.29;85013;1325;25428;-76
2022/06/13 00:47:16;;;;;;;;;;;;;;;16.51;71.42;100540.17;85126;1322;23915;-76
2022/06/13 00:49:21;;;;;;;;;;;;;;;16.57;71.87;100562.56;85065;1325;22570;-75
2022/06/13 00:51:25;;;;;;;;;;;;;;;16.60;72.37;100559.87;84986;1328;24350;-76
2022/06/13 00:53:29;;;;;;;;;;;;;;;16.63;72.80;100568.34;84904;1327;22579;-75
2022/06/13 00:55:34;;;;;;;;;;;;;;;16.64;73.06;100586.56;84928;1326;25280;-75
2022/06/13 00:57:37;;;;;;;;;;;;;;;16.67;73.37;100588.51;84935;1327;24877;-76
2022/06/13 00:59:41;;;;;;;;;;;;;;;16.69;73.56;100579.94;84902;1324;24293;-76
2022/06/13 01:01:44;;;;;;;;;;;;;;;16.68;73.76;100573.48;84875;1322;22599;-76
2022/06/13 01:03:48;;;;;;;;;;;;;;;16.66;73.96;100566.02;84870;1325;22634;-75
2022/06/13 01:05:51;;;;;;;;;;;;;;;16.65;74.12;100561.19;84893;1326;22754;-76
2022/06/13 01:07:55;;;;;;;;;;;;;;;16.65;74.24;100544.79;84897;1325;22595;-77
2022/06/13 01:12:20;;;;;;;;;;;;;;;16.64;74.65;100537.98;84967;1322;22647;-77
2022/06/13 01:14:33;;;;;;;;;;;;;;;16.65;74.76;100531.40;84997;1327;22585;-77
2022/06/13 01:16:42;;;;;;;;;;;;;;;16.64;74.92;100528.31;85002;1325;24287;-76
2022/06/13 01:18:58;;;;;;;;;;;;;;;16.61;75.04;100524.41;85071;1326;22590;-75
2022/06/13 01:21:11;;;;;;;;;;;;;;;16.59;75.08;100515.25;85047;1329;22567;-76
2022/06/13 01:23:39;;;;;;;;;;;;;;;16.57;75.26;100502.52;85009;1326;22593;-77
2022/06/13 01:26:00;;;;;;;;;;;;;;;16.58;75.17;100510.33;85048;1327;22805;-76
2022/06/13 01:28:17;;;;;;;;;;;;;;;16.59;75.48;100515.95;84945;1326;22575;-76
2022/06/13 01:30:46;;;;;;;;;;;;;;;16.58;75.51;100507.02;84921;1326;24326;-76
2022/06/13 01:32:54;;;;;;;;;;;;;;;16.58;75.69;100488.01;84938;1328;24235;-76
2022/06/13 01:35:08;;;;;;;;;;;;;;;16.58;75.71;100474.80;84957;1328;22636;-76
2022/06/13 01:37:19;;;;;;;;;;;;;;;16.58;75.51;100471.42;84942;1321;22584;-77
2022/06/13 01:39:32;;;;;;;;;;;;;;;16.59;75.41;100469.94;84898;1325;22596;-76
2022/06/13 01:41:37;;;;;;;;;;;;;;;16.59;75.61;100465.75;84935;1326;22633;-77
2022/06/13 01:43:48;;;;;;;;;;;;;;;16.55;75.55;100464.06;84907;1326;22569;-77
2022/06/13 01:45:54;;;;;;;;;;;;;;;16.51;75.56;100464.29;84911;1327;22599;-77
2022/06/13 01:47:59;;;;;;;;;;;;;;;16.48;75.82;100457.73;84957;1329;24725;-76
2022/06/13 01:50:09;;;;;;;;;;;;;;;16.46;75.69;100454.73;85004;1324;22671;-76
2022/06/13 01:52:16;;;;;;;;;;;;;;;16.46;75.90;100452.06;84971;1321;22637;-75
2022/06/13 01:54:22;;;;;;;;;;;;;;;16.44;75.91;100451.70;84984;1325;22566;-76
2022/06/13 01:56:27;;;;;;;;;;;;;;;16.43;76.49;100443.27;84940;1326;23979;-77
2022/06/13 01:58:37;;;;;;;;;;;;;;;16.40;76.46;100435.38;85078;1325;22650;-77
2022/06/13 02:00:41;;;;;;;;;;;;;;;16.37;76.57;100429.39;85060;1321;22635;-76
2022/06/13 02:02:47;;;;;;;;;;;;;;;16.33;76.36;100431.20;85116;1326;23959;-76
2022/06/13 02:04:59;;;;;;;;;;;;;;;16.31;76.34;100426.42;85131;1321;22609;-76
2022/06/13 02:07:08;;;;;;;;;;;;;;;16.29;76.32;100425.80;85162;1326;25931;-76
2022/06/13 02:09:13;;;;;;;;;;;;;;;16.26;76.38;100424.42;85153;1326;22652;-75
2022/06/13 02:11:19;;;;;;;;;;;;;;;16.25;76.41;100423.08;85054;1324;22727;-75
2022/06/13 02:13:33;;;;;;;;;;;;;;;16.21;76.34;100423.15;84922;1324;22584;-77
2022/06/13 02:15:39;;;;;;;;;;;;;;;16.17;76.42;100422.20;84909;1327;22867;-73
2022/06/13 02:17:44;;;;;;;;;;;;;;;16.14;76.45;100421.64;84858;1326;25273;-74
2022/06/13 02:19:49;;;;;;;;;;;;;;;16.13;76.64;100418.20;84914;1324;22720;-74
2022/06/13 02:21:55;;;;;;;;;;;;;;;16.11;76.78;100413.73;84908;1326;22824;-74
2022/06/13 02:23:59;;;;;;;;;;;;;;;16.08;76.91;100414.41;84890;1326;22607;-74
2022/06/13 02:26:04;;;;;;;;;;;;;;;16.06;76.99;100415.11;84869;1326;23968;-74
2022/06/13 02:28:10;;;;;;;;;;;;;;;16.03;77.25;100411.73;84926;1322;22595;-73
2022/06/13 02:30:14;;;;;;;;;;;;;;;16.01;77.27;100415.58;84901;1326;24204;-74
2022/06/13 02:32:19;;;;;;;;;;;;;;;15.99;77.40;100416.20;84887;1327;25385;-74
2022/06/13 02:34:24;;;;;;;;;;;;;;;15.95;77.48;100410.10;84891;1325;23934;-73
2022/06/13 02:36:30;;;;;;;;;;;;;;;15.93;77.57;100404.76;84933;1321;22549;-73
2022/06/13 02:38:43;;;;;;;;;;;;;;;15.94;78.10;100399.95;84984;1325;22612;-74
2022/06/13 02:40:48;;;;;;;;;;;;;;;15.97;78.09;100398.90;84999;1326;22683;-74
2022/06/13 02:42:53;;;;;;;;;;;;;;;16.00;78.02;100398.17;84943;1322;22813;-74
2022/06/13 02:45:00;;;;;;;;;;;;;;;16.01;77.94;100397.09;84954;1325;24020;-73
2022/06/13 02:47:09;;;;;;;;;;;;;;;16.02;77.83;100390.19;84948;1326;22603;-73
2022/06/13 02:49:14;;;;;;;;;;;;;;;16.02;77.84;100375.39;85041;1326;25467;-74
2022/06/13 02:51:21;;;;;;;;;;;;;;;16.02;77.78;100370.47;85024;1321;22704;-73
2022/06/13 02:53:25;;;;;;;;;;;;;;;16.02;77.86;100365.02;85029;1325;23129;-74
2022/06/13 02:55:29;;;;;;;;;;;;;;;15.99;77.85;100364.45;84943;1326;22584;-74
2022/06/13 02:57:39;;;;;;;;;;;;;;;15.98;77.89;100368.91;85000;1326;22936;-74
2022/06/13 02:59:52;;;;;;;;;;;;;;;15.95;77.68;100366.80;85010;1321;22980;-75
2022/06/13 03:01:55;;;;;;;;;;;;;;;15.95;77.60;100364.21;84996;1322;24302;-74
2022/06/13 03:04:04;;;;;;;;;;;;;;;15.99;77.69;100360.95;85017;1326;22568;-74
2022/06/13 03:06:09;;;;;;;;;;;;;;;16.01;77.62;100356.80;85010;1321;23832;-74
2022/06/13 03:08:21;;;;;;;;;;;;;;;16.00;77.87;100347.86;85051;1326;22672;-74
2022/06/13 03:10:26;;;;;;;;;;;;;;;16.00;77.81;100344.53;84986;1328;22593;-74
2022/06/13 03:12:33;;;;;;;;;;;;;;;15.99;77.78;100346.15;84991;1323;23932;-74
2022/06/13 03:14:44;;;;;;;;;;;;;;;15.98;77.85;100356.80;84952;1326;22531;-74
2022/06/13 03:16:55;;;;;;;;;;;;;;;15.97;77.80;100356.28;84983;1326;22756;-75
2022/06/13 03:19:03;;;;;;;;;;;;;;;15.97;77.90;100352.65;84996;1327;22681;-75
2022/06/13 03:21:09;;;;;;;;;;;;;;;15.96;78.04;100352.00;85017;1326;22530;-74
2022/06/13 03:23:14;;;;;;;;;;;;;;;15.94;78.06;100355.10;85020;1328;22660;-74
2022/06/13 03:25:21;;;;;;;;;;;;;;;15.92;78.10;100353.28;85038;1327;22640;-75
2022/06/13 03:27:28;;;;;;;;;;;;;;;15.93;78.25;100353.20;85085;1326;25230;-74
2022/06/13 03:29:33;;;;;;;;;;;;;;;15.96;78.30;100350.60;85051;1325;22589;-74
2022/06/13 03:31:39;;;;;;;;;;;;;;;16.04;78.50;100347.97;85045;1324;22679;-74
2022/06/13 03:33:44;;;;;;;;;;;;;;;16.12;78.41;100347.46;85045;1328;22654;-74
2022/06/13 03:35:49;;;;;;;;;;;;;;;16.19;78.34;100354.27;85020;1326;22564;-74
2022/06/13 03:37:53;;;;;;;;;;;;;;;16.24;78.25;100354.45;85064;1327;22682;-74
2022/06/13 03:39:58;;;;;;;;;;;;;;;16.29;78.08;100352.41;85039;1327;22690;-75
2022/06/13 03:42:04;;;;;;;;;;;;;;;16.39;77.88;100353.72;85049;1327;22622;-74
2022/06/13 03:44:11;;;;;;;;;;;;;;;16.43;77.86;100353.67;85033;1326;22577;-75
2022/06/13 03:46:17;;;;;;;;;;;;;;;16.44;77.78;100354.84;84981;1326;24451;-74
2022/06/13 03:48:22;;;;;;;;;;;;;;;16.44;77.86;100354.27;84966;1326;22575;-73
2022/06/13 03:50:28;;;;;;;;;;;;;;;16.46;77.71;100356.09;84959;1326;25281;-76
2022/06/13 03:52:31;;;;;;;;;;;;;;;16.51;77.40;100360.36;84971;1328;22684;-74
2022/06/13 03:54:37;;;;;;;;;;;;;;;16.55;77.24;100368.41;84901;1326;22565;-73
2022/06/13 03:56:42;;;;;;;;;;;;;;;16.59;77.36;100373.96;84771;1327;189333;-73
2022/06/13 03:58:47;;;;;;;;;;;;;;;16.60;77.63;100377.61;84982;1325;25491;-73
2022/06/13 04:00:52;;;;;;;;;;;;;;;16.65;78.11;100393.88;85001;1326;25282;-74
2022/06/13 04:02:55;;;;;;;;;;;;;;;16.70;78.08;100404.13;84969;1326;22517;-73
2022/06/13 04:04:58;;;;;;;;;;;;;;;16.73;78.09;100415.71;84907;1326;24229;-74
2022/06/13 04:07:02;;;;;;;;;;;;;;;16.80;78.13;100416.70;84907;1328;22577;-74
2022/06/13 04:09:06;;;;;;;;;;;;;;;16.85;78.03;100416.02;84921;1326;22635;-74
2022/06/13 04:11:16;;;;;;;;;;;;;;;16.89;78.00;100414.20;84875;1325;22632;-74
2022/06/13 04:13:29;;;;;;;;;;;;;;;16.92;77.82;100408.39;84915;1327;22567;-74
2022/06/13 04:15:53;;;;;;;;;;;;;;;16.93;77.82;100404.40;84938;1320;22576;-74
2022/06/13 04:18:02;;;;;;;;;;;;;;;16.96;77.69;100409.48;84820;1326;22622;-74
2022/06/13 04:20:09;;;;;;;;;;;;;;;17.00;77.68;100413.48;84818;1326;22633;-74
2022/06/13 04:22:17;;;;;;;;;;;;;;;17.05;77.86;100414.23;84840;1324;22622;-74
2022/06/13 04:24:27;;;;;;;;;;;;;;;17.08;77.88;100409.15;84851;1325;25848;-73
2022/06/13 04:26:38;;;;;;;;;;;;;;;17.09;77.85;100400.43;84927;1328;23908;-75
2022/06/13 04:28:44;;;;;;;;;;;;;;;17.10;77.78;100399.84;84935;1322;22593;-74
2022/06/13 04:30:48;;;;;;;;;;;;;;;17.09;77.79;100399.73;84937;1328;23935;-74
2022/06/13 04:32:54;;;;;;;;;;;;;;;17.08;77.88;100401.88;84908;1328;22572;-74
2022/06/13 04:34:58;;;;;;;;;;;;;;;17.12;77.98;100406.06;84861;1324;22848;-73
2022/06/13 04:37:01;;;;;;;;;;;;;;;17.19;78.03;100401.73;84872;1328;24313;-74
2022/06/13 04:39:07;;;;;;;;;;;;;;;17.29;78.39;100400.67;84886;1323;22689;-75
2022/06/13 04:41:10;;;;;;;;;;;;;;;17.43;78.77;100391.64;84884;1328;22572;-74
2022/06/13 04:43:14;;;;;;;;;;;;;;;17.63;78.94;100383.59;84896;1326;22743;-74
2022/06/13 04:45:24;;;;;;;;;;;;;;;18.28;79.19;100377.78;85013;1326;22607;-73
2022/06/13 04:47:27;;;;;;;;;;;;;;;18.77;78.01;100373.98;85002;1324;22579;-73
2022/06/13 04:49:34;;;;;;;;;;;;;;;18.87;76.57;100373.60;84964;1327;24265;-74
2022/06/13 04:51:39;;;;;;;;;;;;;;;18.89;75.45;100366.56;84958;1326;22631;-75
2022/06/13 04:53:48;;;;;;;;;;;;;;;18.87;74.99;100364.65;85012;1326;25288;-74
2022/06/13 04:55:54;;;;;;;;;;;;;;;18.81;74.72;100364.13;84930;1326;22697;-73
2022/06/13 04:57:58;;;;;;;;;;;;;;;18.79;75.00;100363.39;84878;1328;22730;-74
2022/06/13 05:00:03;;;;;;;;;;;;;;;18.80;74.84;100362.80;84915;1324;22590;-73
2022/06/13 05:02:09;;;;;;;;;;;;;;;18.81;74.68;100366.42;84893;1327;22551;-73
2022/06/13 05:04:14;;;;;;;;;;;;;;;18.80;74.46;100371.08;84862;1327;23915;-73
2022/06/13 05:06:22;;;;;;;;;;;;;;;18.79;74.28;100370.33;84846;1326;22588;-73
2022/06/13 05:08:26;;;;;;;;;;;;;;;18.77;74.19;100367.59;84900;1326;22581;-74
2022/06/13 05:10:30;;;;;;;;;;;;;;;18.76;74.25;100365.20;84853;1326;25372;-73
2022/06/13 05:12:36;;;;;;;;;;;;;;;18.76;74.28;100357.96;84836;1326;25936;-74
2022/06/13 05:14:44;;;;;;;;;;;;;;;18.79;74.30;100351.20;84934;1325;22818;-75
2022/06/13 05:16:54;;;;;;;;;;;;;;;18.83;74.52;100347.02;84901;1324;22597;-74
2022/06/13 05:19:09;;;;;;;;;;;;;;;18.86;74.34;100348.05;84948;1326;22630;-73
2022/06/13 05:21:22;;;;;;;;;;;;;;;18.92;74.41;100346.74;85000;1327;22726;-74
2022/06/13 05:23:46;;;;;;;;;;;;;;;19.00;74.35;100346.30;84904;1325;22565;-75
2022/06/13 05:25:53;;;;;;;;;;;;;;;18.99;73.87;100346.34;84935;1326;22537;-75
2022/06/13 05:27:56;;;;;;;;;;;;;;;19.01;73.84;100347.85;84947;1327;22606;-75
2022/06/13 05:30:00;;;;;;;;;;;;;;;19.12;74.60;100347.04;84975;1327;23950;-75
2022/06/13 05:32:06;;;;;;;;;;;;;;;19.22;74.42;100347.16;84909;1328;22948;-75
2022/06/13 05:34:15;;;;;;;;;;;;;;;19.28;74.02;100345.77;85008;1326;22734;-74
2022/06/13 05:36:19;;;;;;;;;;;;;;;19.34;73.66;100338.64;84961;1326;23925;-75
2022/06/13 05:38:28;;;;;;;;;;;;;;;19.35;73.15;100329.55;85009;1326;24374;-75
2022/06/13 05:40:32;;;;;;;;;;;;;;;19.36;73.27;100324.52;84942;1326;23160;-75
2022/06/13 05:42:35;;;;;;;;;;;;;;;19.38;73.22;100334.83;85008;1327;25234;-75
2022/06/13 05:44:39;;;;;;;;;;;;;;;19.33;72.96;100332.37;84913;1327;22580;-75
2022/06/13 05:46:42;;;;;;;;;;;;;;;19.27;72.99;100333.50;84888;1326;25965;-75
2022/06/13 05:48:45;;;;;;;;;;;;;;;19.23;72.95;100333.09;84894;1326;22559;-74
2022/06/13 05:50:51;;;;;;;;;;;;;;;19.18;72.81;100335.61;84896;1325;24267;-78
2022/06/13 05:52:55;;;;;;;;;;;;;;;19.10;72.89;100336.20;84886;1325;22565;-78
2022/06/13 05:54:59;;;;;;;;;;;;;;;19.02;72.99;100335.36;84866;1327;24264;-78
2022/06/13 05:57:02;;;;;;;;;;;;;;;18.95;73.22;100332.73;84871;1327;22565;-78
2022/06/13 05:59:06;;;;;;;;;;;;;;;18.88;73.32;100332.52;84876;1326;25437;-77
2022/06/13 06:01:12;;;;;;;;;;;;;;;18.81;73.85;100330.00;84888;1326;22605;-79
2022/06/13 06:03:16;;;;;;;;;;;;;;;18.74;73.77;100331.42;84841;1328;22558;-78
2022/06/13 06:05:19;;;;;;;;;;;;;;;18.70;74.08;100330.09;84902;1328;23096;-78
2022/06/13 06:07:23;;;;;;;;;;;;;;;18.68;74.30;100331.67;84884;1324;22571;-79
2022/06/13 06:09:26;;;;;;;;;;;;;;;18.67;74.39;100332.09;84862;1326;22587;-79
2022/06/13 06:11:30;;;;;;;;;;;;;;;18.65;74.67;100327.96;84878;1327;22762;-79
2022/06/13 06:13:34;;;;;;;;;;;;;;;18.63;74.96;100325.50;84865;1324;22592;-78
2022/06/13 06:15:38;;;;;;;;;;;;;;;18.59;74.95;100322.27;84891;1327;22568;-77
2022/06/13 06:17:41;;;;;;;;;;;;;;;18.56;75.16;100319.95;84860;1327;23727;-75
2022/06/13 06:19:44;;;;;;;;;;;;;;;18.54;75.26;100312.45;84832;1327;22562;-76
2022/06/13 06:21:48;;;;;;;;;;;;;;;18.55;75.31;100305.15;84890;1325;22570;-76
2022/06/13 06:23:51;;;;;;;;;;;;;;;18.57;75.22;100303.84;84892;1327;22588;-75
2022/06/13 06:25:55;;;;;;;;;;;;;;;18.59;75.43;100298.95;84868;1321;22585;-76
2022/06/13 06:27:58;;;;;;;;;;;;;;;18.62;75.79;100297.98;84887;1325;22613;-76
2022/06/13 06:30:03;;;;;;;;;;;;;;;18.68;76.03;100294.36;84864;1325;22600;-75
2022/06/13 06:32:07;;;;;;;;;;;;;;;18.75;76.00;100293.17;84919;1322;22620;-76
2022/06/13 06:34:11;;;;;;;;;;;;;;;18.84;75.85;100285.64;84922;1326;22927;-76
2022/06/13 06:36:15;;;;;;;;;;;;;;;18.95;75.85;100277.02;84892;1328;23244;-75
2022/06/13 06:38:18;;;;;;;;;;;;;;;19.08;75.92;100276.57;84881;1326;24082;-76
2022/06/13 06:40:22;;;;;;;;;;;;;;;19.26;75.90;100275.20;84850;1324;22577;-76
2022/06/13 06:42:26;;;;;;;;;;;;;;;19.47;75.83;100275.26;84870;1327;25416;-77
2022/06/13 06:44:29;;;;;;;;;;;;;;;19.67;75.75;100271.10;84884;1327;24417;-76
2022/06/13 06:46:32;;;;;;;;;;;;;;;19.80;75.35;100268.41;84884;1326;22671;-76
2022/06/13 06:48:36;;;;;;;;;;;;;;;19.95;75.14;100272.55;84847;1326;22576;-76
2022/06/13 06:50:48;;;;;;;;;;;;;;;20.13;74.52;100273.60;84842;1326;22581;-74
2022/06/13 06:52:54;;;;;;;;;;;;;;;20.35;74.12;100267.41;84887;1327;22590;-76
2022/06/13 06:59:56;;;;;;;;;;;;;;;21.60;72.82;100254.95;84743;1330;22584;-77
2022/06/13 07:01:59;;;;;;;;;;;;;;;22.04;72.37;100253.59;84740;1330;22611;-76
2022/06/13 07:04:03;;;;;;;;;;;;;;;22.49;71.24;100249.85;84756;1331;22698;-76
2022/06/13 07:06:07;;;;;;;;;;;;;;;22.86;68.92;100248.23;84897;1326;25393;-78
2022/06/13 07:08:10;;;;;;;;;;;;;;;23.00;67.18;100248.08;84960;1326;22827;-77
2022/06/13 07:10:15;;;;;;;;;;;;;;;23.13;67.23;100241.55;84895;1321;22587;-77
2022/06/13 07:12:19;;;;;;;;;;;;;;;23.26;66.64;100241.16;84924;1324;22587;-77
2022/06/13 07:14:29;;;;;;;;;;;;;;;23.41;66.43;100245.88;84884;1327;22562;-76
2022/06/13 07:16:33;;;;;;;;;;;;;;;23.57;65.28;100252.85;84869;1325;22611;-73
2022/06/13 07:18:36;;;;;;;;;;;;;;;23.63;63.95;100252.30;84815;1327;22571;-74
2022/06/13 07:20:40;;;;;;;;;;;;;;;23.62;63.32;100257.42;84839;1327;22730;-75
2022/06/13 07:22:48;;;;;;;;;;;;;;;23.63;63.67;100256.23;84814;1327;23965;-74
2022/06/13 07:24:55;;;;;;;;;;;;;;;23.71;63.59;100256.19;84836;1327;26059;-75
2022/06/13 07:26:59;;;;;;;;;;;;;;;23.75;62.08;100256.06;84858;1326;22544;-75
2022/06/13 07:29:02;;;;;;;;;;;;;;;23.72;62.55;100251.34;84897;1327;24376;-74
2022/06/13 07:31:05;;;;;;;;;;;;;;;23.65;61.62;100240.36;84851;1326;23062;-75
2022/06/13 07:33:09;;;;;;;;;;;;;;;23.53;61.72;100236.52;84838;1326;22626;-75
2022/06/13 07:35:14;;;;;;;;;;;;;;;23.39;61.62;100241.00;84818;1326;24216;-74
2022/06/13 07:39:38;;;;;;;;;;;;;;;23.13;62.95;100246.10;84838;1328;22592;-74
2022/06/13 07:41:43;;;;;;;;;;;;;;;23.04;62.74;100253.95;84870;1328;23973;-75
2022/06/13 07:43:46;;;;;;;;;;;;;;;22.96;63.15;100264.11;84839;1322;22643;-75
2022/06/13 07:45:51;;;;;;;;;;;;;;;22.85;63.50;100263.97;84826;1327;24363;-74
2022/06/13 07:47:54;;;;;;;;;;;;;;;22.76;63.97;100257.52;84838;1326;22557;-74
2022/06/13 07:49:57;;;;;;;;;;;;;;;22.69;63.83;100251.77;84914;1327;25404;-77
2022/06/13 07:52:02;;;;;;;;;;;;;;;22.67;64.04;100244.08;85545;1328;22683;-80
2022/06/13 07:54:05;;;;;;;;;;;;;;;22.68;64.00;100241.55;85820;1322;22642;-79
2022/06/13 07:56:13;;;;;;;;;;;;;;;22.68;64.02;100234.78;85739;1323;22660;-79
2022/06/13 07:58:21;;;;;;;;;;;;;;;22.68;64.08;100235.48;85008;1327;22584;-75
2022/06/13 08:00:26;;;;;;;;;;;;;;;22.69;64.24;100238.65;84900;1324;22637;-78
2022/06/13 08:02:32;;;;;;;;;;;;;;;22.65;64.21;100239.84;84906;1327;22671;-78
2022/06/13 08:04:36;;;;;;;;;;;;;;;22.58;63.42;100239.57;84908;1326;22912;-78
2022/06/13 08:06:42;;;;;;;;;;;;;;;22.55;63.47;100241.67;85074;1326;22631;-79
2022/06/13 08:08:46;;;;;;;;;;;;;;;22.56;63.93;100242.98;85059;1328;22659;-77
2022/06/13 08:10:50;;;;;;;;;;;;;;;22.56;63.70;100249.34;85019;1327;24244;-78
2022/06/13 08:12:53;;;;;;;;;;;;;;;22.57;63.41;100249.83;84905;1327;22583;-78
2022/06/13 08:14:56;;;;;;;;;;;;;;;22.54;63.33;100248.64;84918;1327;23977;-77
2022/06/13 08:17:14;;;;;;;;;;;;;;;22.52;63.36;100244.42;84938;1320;22666;-77
2022/06/13 08:19:18;;;;;;;;;;;;;;;22.52;63.45;100241.27;84971;1327;23852;-79
2022/06/13 08:21:23;;;;;;;;;;;;;;;22.51;63.46;100234.02;84881;1321;22691;-78
2022/06/13 08:23:29;;;;;;;;;;;;;;;22.51;63.36;100230.28;84957;1327;24115;-78
2022/06/13 08:25:34;;;;;;;;;;;;;;;22.51;63.90;100223.48;84863;1325;22746;-78
2022/06/13 08:27:37;;;;;;;;;;;;;;;22.55;63.59;100217.09;84857;1325;25420;-77
2022/06/13 08:29:40;;;;;;;;;;;;;;;22.59;62.80;100208.77;84855;1328;22577;-78
2022/06/13 08:31:43;;;;;;;;;;;;;;;22.57;61.93;100205.89;84878;1327;22633;-77
2022/06/13 08:33:47;;;;;;;;;;;;;;;22.53;62.39;100209.48;84885;1325;22556;-77
2022/06/13 08:35:50;;;;;;;;;;;;;;;22.50;62.51;100213.15;84999;1326;22602;-78
2022/06/13 08:37:54;;;;;;;;;;;;;;;22.46;62.26;100205.16;84923;1327;22631;-78
2022/06/13 08:39:57;;;;;;;;;;;;;;;22.43;61.77;100205.39;84923;1326;22997;-77
2022/06/13 08:42:04;;;;;;;;;;;;;;;22.41;61.77;100203.95;84889;1325;22540;-78
2022/06/13 08:44:17;;;;;;;;;;;;;;;22.38;61.87;100208.86;84936;1328;22836;-77
2022/06/13 08:46:23;;;;;;;;;;;;;;;22.37;62.01;100213.05;84931;1328;22622;-77
2022/06/13 08:48:34;;;;;;;;;;;;;;;22.35;62.52;100215.11;84978;1326;22861;-77
2022/06/13 08:50:40;;;;;;;;;;;;;;;22.34;61.98;100215.05;85002;1326;23979;-76
2022/06/13 08:52:47;;;;;;;;;;;;;;;22.32;61.70;100220.23;84999;1327;24039;-76
2022/06/13 08:54:54;;;;;;;;;;;;;;;22.29;61.69;100223.02;84979;1326;24216;-78
2022/06/13 08:56:57;;;;;;;;;;;;;;;22.26;61.98;100225.61;84940;1324;22622;-77
2022/06/13 08:59:22;;;;;;;;;;;;;;;22.26;62.39;100229.15;84850;1325;22663;-77
2022/06/13 09:01:29;;;;;;;;;;;;;;;22.25;61.81;100227.30;84905;1327;22609;-78
2022/06/13 09:03:35;;;;;;;;;;;;;;;22.26;62.33;100219.38;84955;1328;23554;-78
2022/06/13 09:05:42;;;;;;;;;;;;;;;22.27;62.33;100216.42;84914;1326;22622;-78
2022/06/13 09:07:48;;;;;;;;;;;;;;;22.28;62.52;100222.38;84911;1321;22598;-78
2022/06/13 09:09:53;;;;;;;;;;;;;;;22.33;62.77;100237.94;84918;1327;22620;-77
2022/06/13 09:11:58;;;;;;;;;;;;;;;22.36;63.13;100241.16;84889;1328;22586;-77
2022/06/13 09:14:06;;;;;;;;;;;;;;;22.42;62.86;100243.55;84876;1326;22804;-76
2022/06/13 09:16:11;;;;;;;;;;;;;;;22.47;63.08;100252.70;84917;1327;22560;-79
2022/06/13 09:18:18;;;;;;;;;;;;;;;22.49;62.50;100256.09;84929;1325;23896;-80
2022/06/13 09:20:26;;;;;;;;;;;;;;;22.48;62.63;100252.98;84913;1324;25248;-81
2022/06/13 09:22:30;;;;;;;;;;;;;;;22.50;62.85;100248.73;84913;1326;22564;-86
2022/06/13 09:24:46;;;;;;;;;;;;;;;22.49;62.79;100242.53;85312;1327;22551;-79
2022/06/13 09:26:51;;;;;;;;;;;;;;;22.48;62.58;100243.58;84879;1328;22644;-76
2022/06/13 09:28:57;;;;;;;;;;;;;;;22.41;62.55;100242.05;84853;1328;25339;-78
2022/06/13 09:31:06;;;;;;;;;;;;;;;22.33;62.39;100246.66;84895;1326;25422;-81
2022/06/13 09:33:10;;;;;;;;;;;;;;;22.25;62.75;100254.80;84871;1326;22583;-75
2022/06/13 09:35:22;;;;;;;;;;;;;;;22.18;62.80;100259.86;84883;1327;22606;-75
2022/06/13 09:37:30;;;;;;;;;;;;;;;22.07;62.68;100257.41;84919;1327;22621;-78
2022/06/13 09:39:34;;;;;;;;;;;;;;;22.00;62.91;100258.42;84897;1322;22632;-78
2022/06/13 09:41:48;;;;;;;;;;;;;;;21.96;63.42;100260.95;84833;1326;22798;-76
2022/06/13 09:43:58;;;;;;;;;;;;;;;21.88;63.88;100254.80;84914;1325;22704;-77
2022/06/13 09:46:04;;;;;;;;;;;;;;;21.81;63.84;100254.58;84901;1326;22596;-79
2022/06/13 09:48:14;;;;;;;;;;;;;;;21.72;64.16;100251.78;84814;1328;22528;-75
2022/06/13 09:50:20;;;;;;;;;;;;;;;21.69;64.92;100250.66;84823;1328;24426;-76
2022/06/13 09:52:30;;;;;;;;;;;;;;;21.68;65.13;100248.80;84846;1325;22568;-77
2022/06/13 09:54:39;;;;;;;;;;;;;;;21.68;65.10;100246.30;84860;1328;22584;-76
2022/06/13 09:56:45;;;;;;;;;;;;;;;21.69;65.37;100243.20;84819;1327;22569;-73
2022/06/13 09:58:58;;;;;;;;;;;;;;;21.70;65.91;100242.05;84840;1326;24233;-76
2022/06/13 10:01:02;;;;;;;;;;;;;;;21.66;65.62;100242.92;84840;1324;23050;-76
2022/06/13 10:03:11;;;;;;;;;;;;;;;21.67;65.98;100241.95;84828;1326;22838;-76
2022/06/13 10:05:21;;;;;;;;;;;;;;;21.68;65.71;100230.14;84856;1326;22588;-76
2022/06/13 10:07:37;;;;;;;;;;;;;;;21.68;65.68;100226.05;84819;1329;22584;-75
2022/06/13 10:09:43;;;;;;;;;;;;;;;21.69;65.86;100224.21;84835;1327;22848;-75
2022/06/13 10:11:50;;;;;;;;;;;;;;;21.71;66.07;100220.31;84853;1326;22736;-75
2022/06/13 10:14:05;;;;;;;;;;;;;;;21.75;65.92;100223.31;84864;1325;22867;-76
2022/06/13 10:16:11;;;;;;;;;;;;;;;21.80;65.45;100220.36;84833;1327;22622;-76
2022/06/13 10:18:22;;;;;;;;;;;;;;;21.84;65.17;100219.85;84848;1326;23945;-75
2022/06/13 10:20:30;;;;;;;;;;;;;;;21.87;64.81;100219.91;84851;1328;24236;-75
2022/06/13 10:22:37;;;;;;;;;;;;;;;21.88;64.37;100210.92;84871;1326;22592;-77
2022/06/13 10:24:54;;;;;;;;;;;;;;;21.90;64.56;100206.69;84840;1328;22927;-76
2022/06/13 10:27:08;;;;;;;;;;;;;;;21.96;64.60;100206.17;84839;1327;22593;-76
2022/06/13 10:29:26;;;;;;;;;;;;;;;22.03;64.54;100202.52;84834;1326;22989;-76
2022/06/13 10:31:36;;;;;;;;;;;;;;;22.10;64.50;100200.00;84825;1324;24229;-76
2022/06/13 10:33:45;;;;;;;;;;;;;;;22.16;64.50;100200.48;84846;1325;22589;-76
2022/06/13 10:35:49;;;;;;;;;;;;;;;22.22;64.28;100196.44;84858;1321;22636;-76
2022/06/13 10:38:01;;;;;;;;;;;;;;;22.26;64.44;100194.16;84828;1328;22612;-76
2022/06/13 10:40:06;;;;;;;;;;;;;;;22.29;64.03;100185.90;84808;1330;24377;-76
2022/06/13 10:42:11;;;;;;;;;;;;;;;22.28;63.09;100182.56;84824;1327;24248;-76
2022/06/13 10:44:15;;;;;;;;;;;;;;;22.23;62.36;100177.66;84813;1330;25458;-75
2022/06/13 10:46:18;;;;;;;;;;;;;;;22.13;62.29;100176.23;84842;1325;22553;-77
2022/06/13 10:48:25;;;;;;;;;;;;;;;22.07;62.76;100176.20;84824;1326;22636;-76
2022/06/13 10:50:31;;;;;;;;;;;;;;;22.05;63.09;100168.05;84833;1327;22549;-76
2022/06/13 10:52:39;;;;;;;;;;;;;;;22.06;63.19;100167.30;84823;1324;25416;-77
2022/06/13 10:54:45;;;;;;;;;;;;;;;22.08;63.32;100170.63;84827;1326;22585;-76
2022/06/13 10:56:50;;;;;;;;;;;;;;;22.17;63.46;100178.45;84831;1325;24210;-76
2022/06/13 10:58:54;;;;;;;;;;;;;;;22.28;63.51;100184.21;84842;1327;22725;-76